sensor_id;sensor_type;location;lat;lon;timestamp;P1;durP1;ratioP1;P2;durP2;ratioP2
80297;SDS011;69599;52.622;9.230;2024-03-02T00:00:42;13.68;;;7.63;;
80297;SDS011;69599;52.622;9.230;2024-03-02T00:03:07;13.93;;;8.07;;
80297;SDS011;69599;52.622;9.230;2024-03-02T00:05:34;12.90;;;7.82;;
80297;SDS011;69599;52.622;9.230;2024-03-02T00:08:00;13.70;;;7.88;;
80297;SDS011;69599;52.622;9.230;2024-03-02T00:10:26;14.35;;;7.93;;
80297;SDS011;69599;52.622;9.230;2024-03-02T00:12:55;14.63;;;8.70;;
80297;SDS011;69599;52.622;9.230;2024-03-02T00:18:10;13.35;;;8.80;;
80297;SDS011;69599;52.622;9.230;2024-03-02T00:20:37;12.23;;;7.68;;
80297;SDS011;69599;52.622;9.230;2024-03-02T00:23:04;14.95;;;8.85;;
80297;SDS011;69599;52.622;9.230;2024-03-02T00:25:40;14.02;;;8.20;;
80297;SDS011;69599;52.622;9.230;2024-03-02T00:28:10;15.10;;;7.88;;
80297;SDS011;69599;52.622;9.230;2024-03-02T00:33:07;11.88;;;7.10;;
80297;SDS011;69599;52.622;9.230;2024-03-02T00:35:33;14.77;;;8.43;;
80297;SDS011;69599;52.622;9.230;2024-03-02T00:38:02;17.23;;;8.65;;
80297;SDS011;69599;52.622;9.230;2024-03-02T00:40:31;12.95;;;7.80;;
80297;SDS011;69599;52.622;9.230;2024-03-02T00:42:57;12.05;;;8.02;;
80297;SDS011;69599;52.622;9.230;2024-03-02T00:45:23;14.27;;;8.02;;
80297;SDS011;69599;52.622;9.230;2024-03-02T00:47:49;14.25;;;8.88;;
80297;SDS011;69599;52.622;9.230;2024-03-02T00:50:15;14.98;;;8.38;;
80297;SDS011;69599;52.622;9.230;2024-03-02T00:52:40;15.07;;;8.82;;
80297;SDS011;69599;52.622;9.230;2024-03-02T00:55:06;14.23;;;7.80;;
80297;SDS011;69599;52.622;9.230;2024-03-02T00:57:33;11.85;;;8.00;;
80297;SDS011;69599;52.622;9.230;2024-03-02T00:59:59;12.57;;;8.85;;
80297;SDS011;69599;52.622;9.230;2024-03-02T01:02:25;13.45;;;7.47;;
80297;SDS011;69599;52.622;9.230;2024-03-02T01:04:50;13.10;;;7.70;;
80297;SDS011;69599;52.622;9.230;2024-03-02T01:07:16;14.10;;;8.25;;
80297;SDS011;69599;52.622;9.230;2024-03-02T01:09:41;14.35;;;8.25;;
80297;SDS011;69599;52.622;9.230;2024-03-02T01:12:06;12.25;;;7.65;;
80297;SDS011;69599;52.622;9.230;2024-03-02T01:14:32;15.85;;;8.95;;
80297;SDS011;69599;52.622;9.230;2024-03-02T01:16:57;13.93;;;8.27;;
80297;SDS011;69599;52.622;9.230;2024-03-02T01:19:23;14.10;;;8.85;;
80297;SDS011;69599;52.622;9.230;2024-03-02T01:21:48;11.50;;;7.15;;
80297;SDS011;69599;52.622;9.230;2024-03-02T01:24:15;12.73;;;8.07;;
80297;SDS011;69599;52.622;9.230;2024-03-02T01:26:41;14.45;;;8.32;;
80297;SDS011;69599;52.622;9.230;2024-03-02T01:29:07;13.98;;;8.25;;
80297;SDS011;69599;52.622;9.230;2024-03-02T01:31:33;13.93;;;8.45;;
80297;SDS011;69599;52.622;9.230;2024-03-02T01:33:58;13.88;;;7.55;;
80297;SDS011;69599;52.622;9.230;2024-03-02T01:36:23;16.02;;;9.15;;
80297;SDS011;69599;52.622;9.230;2024-03-02T01:38:49;13.07;;;8.25;;
80297;SDS011;69599;52.622;9.230;2024-03-02T01:41:15;13.35;;;7.90;;
80297;SDS011;69599;52.622;9.230;2024-03-02T01:43:40;12.48;;;7.65;;
80297;SDS011;69599;52.622;9.230;2024-03-02T01:46:06;14.32;;;8.18;;
80297;SDS011;69599;52.622;9.230;2024-03-02T01:48:31;12.80;;;7.90;;
80297;SDS011;69599;52.622;9.230;2024-03-02T01:50:57;13.95;;;8.27;;
80297;SDS011;69599;52.622;9.230;2024-03-02T01:53:22;15.30;;;8.90;;
80297;SDS011;69599;52.622;9.230;2024-03-02T01:55:49;14.80;;;8.30;;
80297;SDS011;69599;52.622;9.230;2024-03-02T01:58:14;12.63;;;7.75;;
80297;SDS011;69599;52.622;9.230;2024-03-02T02:00:39;11.63;;;7.13;;
80297;SDS011;69599;52.622;9.230;2024-03-02T02:03:05;13.80;;;8.02;;
80297;SDS011;69599;52.622;9.230;2024-03-02T02:05:31;12.25;;;8.10;;
80297;SDS011;69599;52.622;9.230;2024-03-02T02:07:57;15.52;;;8.25;;
80297;SDS011;69599;52.622;9.230;2024-03-02T02:10:23;13.63;;;7.60;;
80297;SDS011;69599;52.622;9.230;2024-03-02T02:12:49;14.25;;;8.23;;
80297;SDS011;69599;52.622;9.230;2024-03-02T02:15:30;13.57;;;7.93;;
80297;SDS011;69599;52.622;9.230;2024-03-02T02:17:56;12.93;;;7.38;;
80297;SDS011;69599;52.622;9.230;2024-03-02T02:20:22;11.73;;;6.97;;
80297;SDS011;69599;52.622;9.230;2024-03-02T02:22:58;12.48;;;8.20;;
80297;SDS011;69599;52.622;9.230;2024-03-02T02:25:27;13.00;;;6.65;;
80297;SDS011;69599;52.622;9.230;2024-03-02T02:27:53;12.65;;;7.28;;
80297;SDS011;69599;52.622;9.230;2024-03-02T02:30:20;13.73;;;7.55;;
80297;SDS011;69599;52.622;9.230;2024-03-02T02:32:47;14.07;;;6.78;;
80297;SDS011;69599;52.622;9.230;2024-03-02T02:35:12;9.27;;;6.28;;
80297;SDS011;69599;52.622;9.230;2024-03-02T02:37:38;11.63;;;6.50;;
80297;SDS011;69599;52.622;9.230;2024-03-02T02:40:04;12.05;;;6.72;;
80297;SDS011;69599;52.622;9.230;2024-03-02T02:42:30;11.63;;;6.57;;
80297;SDS011;69599;52.622;9.230;2024-03-02T02:44:55;11.75;;;6.93;;
80297;SDS011;69599;52.622;9.230;2024-03-02T02:47:21;12.27;;;7.13;;
80297;SDS011;69599;52.622;9.230;2024-03-02T02:49:46;14.02;;;7.00;;
80297;SDS011;69599;52.622;9.230;2024-03-02T02:52:12;10.25;;;6.20;;
80297;SDS011;69599;52.622;9.230;2024-03-02T02:54:38;11.77;;;6.75;;
80297;SDS011;69599;52.622;9.230;2024-03-02T02:57:04;11.60;;;6.35;;
80297;SDS011;69599;52.622;9.230;2024-03-02T02:59:29;11.40;;;6.25;;
80297;SDS011;69599;52.622;9.230;2024-03-02T03:01:55;11.63;;;6.53;;
80297;SDS011;69599;52.622;9.230;2024-03-02T03:04:20;10.00;;;6.70;;
80297;SDS011;69599;52.622;9.230;2024-03-02T03:06:45;11.45;;;7.03;;
80297;SDS011;69599;52.622;9.230;2024-03-02T03:09:11;11.50;;;6.78;;
80297;SDS011;69599;52.622;9.230;2024-03-02T03:11:36;12.70;;;7.10;;
80297;SDS011;69599;52.622;9.230;2024-03-02T03:14:02;13.30;;;6.95;;
80297;SDS011;69599;52.622;9.230;2024-03-02T03:16:28;10.25;;;6.65;;
80297;SDS011;69599;52.622;9.230;2024-03-02T03:18:53;11.25;;;6.63;;
80297;SDS011;69599;52.622;9.230;2024-03-02T03:21:20;10.32;;;5.82;;
80297;SDS011;69599;52.622;9.230;2024-03-02T03:23:46;9.25;;;6.10;;
80297;SDS011;69599;52.622;9.230;2024-03-02T03:26:11;10.70;;;6.57;;
80297;SDS011;69599;52.622;9.230;2024-03-02T03:28:37;13.50;;;6.15;;
80297;SDS011;69599;52.622;9.230;2024-03-02T03:31:02;9.38;;;6.03;;
80297;SDS011;69599;52.622;9.230;2024-03-02T03:33:28;12.13;;;7.05;;
80297;SDS011;69599;52.622;9.230;2024-03-02T03:35:54;10.63;;;6.25;;
80297;SDS011;69599;52.622;9.230;2024-03-02T03:38:19;8.50;;;5.70;;
80297;SDS011;69599;52.622;9.230;2024-03-02T03:40:44;10.98;;;6.18;;
80297;SDS011;69599;52.622;9.230;2024-03-02T03:43:10;11.77;;;6.90;;
80297;SDS011;69599;52.622;9.230;2024-03-02T03:45:36;13.00;;;6.45;;
80297;SDS011;69599;52.622;9.230;2024-03-02T03:48:02;9.20;;;5.45;;
80297;SDS011;69599;52.622;9.230;2024-03-02T03:50:28;12.05;;;6.57;;
80297;SDS011;69599;52.622;9.230;2024-03-02T03:52:53;10.20;;;5.85;;
80297;SDS011;69599;52.622;9.230;2024-03-02T03:55:18;11.15;;;6.72;;
80297;SDS011;69599;52.622;9.230;2024-03-02T03:57:44;12.43;;;6.72;;
80297;SDS011;69599;52.622;9.230;2024-03-02T04:00:09;9.70;;;6.40;;
80297;SDS011;69599;52.622;9.230;2024-03-02T04:02:35;11.40;;;6.80;;
80297;SDS011;69599;52.622;9.230;2024-03-02T04:05:01;13.57;;;7.18;;
80297;SDS011;69599;52.622;9.230;2024-03-02T04:07:30;10.35;;;6.30;;
80297;SDS011;69599;52.622;9.230;2024-03-02T04:09:55;10.85;;;6.40;;
80297;SDS011;69599;52.622;9.230;2024-03-02T04:12:21;9.02;;;5.93;;
80297;SDS011;69599;52.622;9.230;2024-03-02T04:14:47;11.13;;;6.53;;
80297;SDS011;69599;52.622;9.230;2024-03-02T04:17:12;9.80;;;6.28;;
80297;SDS011;69599;52.622;9.230;2024-03-02T04:19:38;11.25;;;6.53;;
80297;SDS011;69599;52.622;9.230;2024-03-02T04:22:03;11.82;;;6.97;;
80297;SDS011;69599;52.622;9.230;2024-03-02T04:24:29;12.95;;;7.95;;
80297;SDS011;69599;52.622;9.230;2024-03-02T04:26:55;13.55;;;7.45;;
80297;SDS011;69599;52.622;9.230;2024-03-02T04:29:20;11.93;;;6.70;;
80297;SDS011;69599;52.622;9.230;2024-03-02T04:31:45;12.90;;;7.20;;
80297;SDS011;69599;52.622;9.230;2024-03-02T04:34:11;12.98;;;7.03;;
80297;SDS011;69599;52.622;9.230;2024-03-02T04:36:36;13.23;;;6.88;;
80297;SDS011;69599;52.622;9.230;2024-03-02T04:39:02;14.20;;;7.25;;
80297;SDS011;69599;52.622;9.230;2024-03-02T04:41:27;14.10;;;8.35;;
80297;SDS011;69599;52.622;9.230;2024-03-02T04:43:53;14.88;;;7.80;;
80297;SDS011;69599;52.622;9.230;2024-03-02T04:46:18;13.23;;;7.43;;
80297;SDS011;69599;52.622;9.230;2024-03-02T04:48:45;14.63;;;8.18;;
80297;SDS011;69599;52.622;9.230;2024-03-02T04:51:10;14.40;;;8.32;;
80297;SDS011;69599;52.622;9.230;2024-03-02T04:53:36;17.77;;;7.90;;
80297;SDS011;69599;52.622;9.230;2024-03-02T04:56:01;11.07;;;6.45;;
80297;SDS011;69599;52.622;9.230;2024-03-02T04:58:55;16.23;;;8.68;;
80297;SDS011;69599;52.622;9.230;2024-03-02T05:01:22;15.57;;;9.10;;
80297;SDS011;69599;52.622;9.230;2024-03-02T05:03:47;16.48;;;7.95;;
80297;SDS011;69599;52.622;9.230;2024-03-02T05:06:13;14.55;;;9.10;;
80297;SDS011;69599;52.622;9.230;2024-03-02T05:08:38;17.05;;;9.57;;
80297;SDS011;69599;52.622;9.230;2024-03-02T05:11:04;14.05;;;8.20;;
80297;SDS011;69599;52.622;9.230;2024-03-02T05:13:48;15.18;;;8.20;;
80297;SDS011;69599;52.622;9.230;2024-03-02T05:16:13;13.55;;;8.65;;
80297;SDS011;69599;52.622;9.230;2024-03-02T05:18:39;14.35;;;7.55;;
80297;SDS011;69599;52.622;9.230;2024-03-02T05:21:04;14.73;;;8.38;;
80297;SDS011;69599;52.622;9.230;2024-03-02T05:23:30;14.40;;;8.75;;
80297;SDS011;69599;52.622;9.230;2024-03-02T05:25:56;15.30;;;9.10;;
80297;SDS011;69599;52.622;9.230;2024-03-02T05:28:21;14.88;;;8.40;;
80297;SDS011;69599;52.622;9.230;2024-03-02T05:30:46;14.20;;;8.85;;
80297;SDS011;69599;52.622;9.230;2024-03-02T05:33:12;15.93;;;8.55;;
80297;SDS011;69599;52.622;9.230;2024-03-02T05:35:37;17.55;;;8.90;;
80297;SDS011;69599;52.622;9.230;2024-03-02T05:38:03;16.98;;;8.60;;
80297;SDS011;69599;52.622;9.230;2024-03-02T05:40:28;16.48;;;9.00;;
80297;SDS011;69599;52.622;9.230;2024-03-02T05:42:54;16.45;;;9.57;;
80297;SDS011;69599;52.622;9.230;2024-03-02T05:45:19;16.90;;;9.70;;
80297;SDS011;69599;52.622;9.230;2024-03-02T05:47:45;15.98;;;9.50;;
80297;SDS011;69599;52.622;9.230;2024-03-02T05:50:10;18.10;;;9.68;;
80297;SDS011;69599;52.622;9.230;2024-03-02T05:52:36;18.80;;;8.65;;
80297;SDS011;69599;52.622;9.230;2024-03-02T05:55:01;17.70;;;9.77;;
80297;SDS011;69599;52.622;9.230;2024-03-02T05:57:27;15.88;;;10.32;;
80297;SDS011;69599;52.622;9.230;2024-03-02T06:00:20;18.67;;;9.95;;
80297;SDS011;69599;52.622;9.230;2024-03-02T06:02:46;14.57;;;8.68;;
80297;SDS011;69599;52.622;9.230;2024-03-02T06:05:11;16.48;;;9.05;;
80297;SDS011;69599;52.622;9.230;2024-03-02T06:07:37;18.63;;;9.63;;
80297;SDS011;69599;52.622;9.230;2024-03-02T06:10:02;16.90;;;9.80;;
80297;SDS011;69599;52.622;9.230;2024-03-02T06:12:28;19.77;;;9.82;;
80297;SDS011;69599;52.622;9.230;2024-03-02T06:14:56;18.60;;;10.32;;
80297;SDS011;69599;52.622;9.230;2024-03-02T06:17:21;16.25;;;8.85;;
80297;SDS011;69599;52.622;9.230;2024-03-02T06:19:47;20.00;;;9.65;;
80297;SDS011;69599;52.622;9.230;2024-03-02T06:22:12;20.38;;;10.30;;
80297;SDS011;69599;52.622;9.230;2024-03-02T06:24:38;16.88;;;9.88;;
80297;SDS011;69599;52.622;9.230;2024-03-02T06:27:03;16.83;;;9.30;;
80297;SDS011;69599;52.622;9.230;2024-03-02T06:29:32;16.77;;;9.63;;
80297;SDS011;69599;52.622;9.230;2024-03-02T06:31:58;21.00;;;9.88;;
80297;SDS011;69599;52.622;9.230;2024-03-02T06:34:23;18.58;;;10.40;;
80297;SDS011;69599;52.622;9.230;2024-03-02T06:36:48;20.23;;;9.48;;
80297;SDS011;69599;52.622;9.230;2024-03-02T06:39:14;21.25;;;10.57;;
80297;SDS011;69599;52.622;9.230;2024-03-02T06:41:39;19.17;;;9.75;;
80297;SDS011;69599;52.622;9.230;2024-03-02T06:44:05;16.50;;;9.30;;
80297;SDS011;69599;52.622;9.230;2024-03-02T06:46:32;16.73;;;9.60;;
80297;SDS011;69599;52.622;9.230;2024-03-02T06:48:57;17.80;;;9.70;;
80297;SDS011;69599;52.622;9.230;2024-03-02T06:51:23;18.95;;;9.65;;
80297;SDS011;69599;52.622;9.230;2024-03-02T06:53:48;16.92;;;8.95;;
80297;SDS011;69599;52.622;9.230;2024-03-02T06:56:14;17.15;;;8.52;;
80297;SDS011;69599;52.622;9.230;2024-03-02T06:58:39;18.98;;;10.63;;
80297;SDS011;69599;52.622;9.230;2024-03-02T07:01:08;18.73;;;9.38;;
80297;SDS011;69599;52.622;9.230;2024-03-02T07:03:33;16.50;;;8.60;;
80297;SDS011;69599;52.622;9.230;2024-03-02T07:05:58;20.25;;;9.82;;
80297;SDS011;69599;52.622;9.230;2024-03-02T07:08:24;18.15;;;10.90;;
80297;SDS011;69599;52.622;9.230;2024-03-02T07:10:49;18.15;;;9.25;;
80297;SDS011;69599;52.622;9.230;2024-03-02T07:13:15;17.88;;;8.80;;
80297;SDS011;69599;52.622;9.230;2024-03-02T07:15:40;18.73;;;9.05;;
80297;SDS011;69599;52.622;9.230;2024-03-02T07:18:29;16.02;;;8.10;;
80297;SDS011;69599;52.622;9.230;2024-03-02T07:20:55;19.80;;;9.45;;
80297;SDS011;69599;52.622;9.230;2024-03-02T07:23:23;19.77;;;10.35;;
80297;SDS011;69599;52.622;9.230;2024-03-02T07:25:52;17.92;;;10.18;;
80297;SDS011;69599;52.622;9.230;2024-03-02T07:28:19;13.70;;;7.38;;
80297;SDS011;69599;52.622;9.230;2024-03-02T07:30:45;18.67;;;10.27;;
80297;SDS011;69599;52.622;9.230;2024-03-02T07:33:11;18.30;;;10.25;;
80297;SDS011;69599;52.622;9.230;2024-03-02T07:35:36;20.85;;;10.73;;
80297;SDS011;69599;52.622;9.230;2024-03-02T07:38:02;17.67;;;9.88;;
80297;SDS011;69599;52.622;9.230;2024-03-02T07:40:27;20.15;;;10.32;;
80297;SDS011;69599;52.622;9.230;2024-03-02T07:42:53;18.98;;;9.85;;
80297;SDS011;69599;52.622;9.230;2024-03-02T07:45:18;19.67;;;10.25;;
80297;SDS011;69599;52.622;9.230;2024-03-02T07:47:43;19.27;;;10.27;;
80297;SDS011;69599;52.622;9.230;2024-03-02T07:50:09;17.50;;;10.05;;
80297;SDS011;69599;52.622;9.230;2024-03-02T07:52:35;15.88;;;10.00;;
80297;SDS011;69599;52.622;9.230;2024-03-02T07:55:00;13.82;;;8.43;;
80297;SDS011;69599;52.622;9.230;2024-03-02T07:57:26;16.08;;;9.70;;
80297;SDS011;69599;52.622;9.230;2024-03-02T07:59:52;18.90;;;10.38;;
80297;SDS011;69599;52.622;9.230;2024-03-02T08:02:17;19.33;;;10.98;;
80297;SDS011;69599;52.622;9.230;2024-03-02T08:04:42;17.98;;;9.55;;
80297;SDS011;69599;52.622;9.230;2024-03-02T08:07:08;19.00;;;9.85;;
80297;SDS011;69599;52.622;9.230;2024-03-02T08:09:34;15.88;;;9.52;;
80297;SDS011;69599;52.622;9.230;2024-03-02T08:12:00;19.30;;;10.48;;
80297;SDS011;69599;52.622;9.230;2024-03-02T08:14:25;14.90;;;9.27;;
80297;SDS011;69599;52.622;9.230;2024-03-02T08:16:51;16.00;;;8.45;;
80297;SDS011;69599;52.622;9.230;2024-03-02T08:19:16;15.95;;;9.52;;
80297;SDS011;69599;52.622;9.230;2024-03-02T08:21:42;15.27;;;8.93;;
80297;SDS011;69599;52.622;9.230;2024-03-02T08:24:08;17.27;;;8.48;;
80297;SDS011;69599;52.622;9.230;2024-03-02T08:26:33;14.93;;;9.00;;
80297;SDS011;69599;52.622;9.230;2024-03-02T08:29:00;18.98;;;9.15;;
80297;SDS011;69599;52.622;9.230;2024-03-02T08:31:27;16.17;;;8.65;;
80297;SDS011;69599;52.622;9.230;2024-03-02T08:33:53;16.58;;;8.57;;
80297;SDS011;69599;52.622;9.230;2024-03-02T08:36:18;15.98;;;8.20;;
80297;SDS011;69599;52.622;9.230;2024-03-02T08:38:44;15.32;;;7.85;;
80297;SDS011;69599;52.622;9.230;2024-03-02T08:41:10;15.88;;;8.60;;
80297;SDS011;69599;52.622;9.230;2024-03-02T08:43:38;15.73;;;8.43;;
80297;SDS011;69599;52.622;9.230;2024-03-02T08:46:03;14.93;;;8.07;;
80297;SDS011;69599;52.622;9.230;2024-03-02T08:48:29;17.50;;;7.82;;
80297;SDS011;69599;52.622;9.230;2024-03-02T08:50:54;14.07;;;8.20;;
80297;SDS011;69599;52.622;9.230;2024-03-02T08:53:20;17.48;;;8.10;;
80297;SDS011;69599;52.622;9.230;2024-03-02T08:55:48;16.13;;;8.90;;
80297;SDS011;69599;52.622;9.230;2024-03-02T08:58:14;16.42;;;8.43;;
80297;SDS011;69599;52.622;9.230;2024-03-02T09:00:39;17.90;;;8.57;;
80297;SDS011;69599;52.622;9.230;2024-03-02T09:03:05;14.43;;;8.10;;
80297;SDS011;69599;52.622;9.230;2024-03-02T09:05:31;14.32;;;8.63;;
80297;SDS011;69599;52.622;9.230;2024-03-02T09:07:56;14.73;;;8.15;;
80297;SDS011;69599;52.622;9.230;2024-03-02T09:10:21;16.42;;;7.60;;
80297;SDS011;69599;52.622;9.230;2024-03-02T09:12:47;15.57;;;7.80;;
80297;SDS011;69599;52.622;9.230;2024-03-02T09:15:12;14.90;;;7.43;;
80297;SDS011;69599;52.622;9.230;2024-03-02T09:17:38;13.32;;;6.93;;
80297;SDS011;69599;52.622;9.230;2024-03-02T09:20:04;16.08;;;7.70;;
80297;SDS011;69599;52.622;9.230;2024-03-02T09:22:30;21.98;;;7.38;;
80297;SDS011;69599;52.622;9.230;2024-03-02T09:24:55;14.55;;;7.03;;
80297;SDS011;69599;52.622;9.230;2024-03-02T09:27:21;15.73;;;8.07;;
80297;SDS011;69599;52.622;9.230;2024-03-02T09:29:47;13.05;;;6.57;;
80297;SDS011;69599;52.622;9.230;2024-03-02T09:32:13;12.38;;;7.20;;
80297;SDS011;69599;52.622;9.230;2024-03-02T09:34:39;15.98;;;7.22;;
80297;SDS011;69599;52.622;9.230;2024-03-02T09:37:04;14.77;;;7.05;;
80297;SDS011;69599;52.622;9.230;2024-03-02T09:39:30;14.52;;;7.65;;
80297;SDS011;69599;52.622;9.230;2024-03-02T09:41:56;13.02;;;7.28;;
80297;SDS011;69599;52.622;9.230;2024-03-02T09:44:22;14.05;;;7.63;;
80297;SDS011;69599;52.622;9.230;2024-03-02T09:46:51;10.65;;;6.60;;
80297;SDS011;69599;52.622;9.230;2024-03-02T09:49:17;11.68;;;7.45;;
80297;SDS011;69599;52.622;9.230;2024-03-02T09:51:46;11.43;;;6.10;;
80297;SDS011;69599;52.622;9.230;2024-03-02T09:54:12;12.55;;;6.03;;
80297;SDS011;69599;52.622;9.230;2024-03-02T09:56:38;13.65;;;6.82;;
80297;SDS011;69599;52.622;9.230;2024-03-02T09:59:04;11.27;;;6.18;;
80297;SDS011;69599;52.622;9.230;2024-03-02T10:01:30;9.57;;;6.22;;
80297;SDS011;69599;52.622;9.230;2024-03-02T10:03:57;11.57;;;6.70;;
80297;SDS011;69599;52.622;9.230;2024-03-02T10:06:25;12.90;;;7.03;;
80297;SDS011;69599;52.622;9.230;2024-03-02T10:08:51;11.65;;;6.05;;
80297;SDS011;69599;52.622;9.230;2024-03-02T10:11:30;11.93;;;5.72;;
80297;SDS011;69599;52.622;9.230;2024-03-02T10:14:11;8.63;;;5.43;;
80297;SDS011;69599;52.622;9.230;2024-03-02T10:16:38;10.27;;;4.85;;
80297;SDS011;69599;52.622;9.230;2024-03-02T10:21:42;9.32;;;5.30;;
80297;SDS011;69599;52.622;9.230;2024-03-02T10:24:08;8.05;;;4.50;;
80297;SDS011;69599;52.622;9.230;2024-03-02T10:26:34;7.38;;;4.22;;
80297;SDS011;69599;52.622;9.230;2024-03-02T10:28:59;8.60;;;5.22;;
80297;SDS011;69599;52.622;9.230;2024-03-02T10:31:25;10.13;;;5.40;;
80297;SDS011;69599;52.622;9.230;2024-03-02T10:33:54;9.35;;;5.50;;
80297;SDS011;69599;52.622;9.230;2024-03-02T10:36:20;8.65;;;5.13;;
80297;SDS011;69599;52.622;9.230;2024-03-02T10:38:46;8.50;;;5.15;;
80297;SDS011;69599;52.622;9.230;2024-03-02T10:41:16;9.88;;;6.05;;
80297;SDS011;69599;52.622;9.230;2024-03-02T10:43:42;9.35;;;5.45;;
80297;SDS011;69599;52.622;9.230;2024-03-02T10:46:08;8.30;;;4.75;;
80297;SDS011;69599;52.622;9.230;2024-03-02T10:48:34;9.38;;;5.43;;
80297;SDS011;69599;52.622;9.230;2024-03-02T10:51:00;10.85;;;5.50;;
80297;SDS011;69599;52.622;9.230;2024-03-02T10:53:27;8.30;;;5.35;;
80297;SDS011;69599;52.622;9.230;2024-03-02T10:55:53;10.15;;;4.88;;
80297;SDS011;69599;52.622;9.230;2024-03-02T10:58:27;8.27;;;4.78;;
80297;SDS011;69599;52.622;9.230;2024-03-02T11:00:57;9.02;;;4.82;;
80297;SDS011;69599;52.622;9.230;2024-03-02T11:03:24;9.55;;;5.70;;
80297;SDS011;69599;52.622;9.230;2024-03-02T11:05:50;10.63;;;5.20;;
80297;SDS011;69599;52.622;9.230;2024-03-02T11:08:17;9.23;;;5.53;;
80297;SDS011;69599;52.622;9.230;2024-03-02T11:10:51;9.55;;;5.10;;
80297;SDS011;69599;52.622;9.230;2024-03-02T11:13:18;8.38;;;4.90;;
80297;SDS011;69599;52.622;9.230;2024-03-02T11:16:05;6.95;;;4.65;;
80297;SDS011;69599;52.622;9.230;2024-03-02T11:18:35;7.35;;;4.35;;
80297;SDS011;69599;52.622;9.230;2024-03-02T11:21:01;7.68;;;4.65;;
80297;SDS011;69599;52.622;9.230;2024-03-02T11:23:31;11.15;;;5.00;;
80297;SDS011;69599;52.622;9.230;2024-03-02T11:28:46;8.55;;;5.28;;
80297;SDS011;69599;52.622;9.230;2024-03-02T11:31:11;9.30;;;5.57;;
80297;SDS011;69599;52.622;9.230;2024-03-02T11:33:37;10.30;;;5.05;;
80297;SDS011;69599;52.622;9.230;2024-03-02T11:36:02;7.68;;;4.05;;
80297;SDS011;69599;52.622;9.230;2024-03-02T11:38:29;7.35;;;4.35;;
80297;SDS011;69599;52.622;9.230;2024-03-02T11:40:55;8.55;;;5.22;;
80297;SDS011;69599;52.622;9.230;2024-03-02T11:43:21;9.10;;;4.03;;
80297;SDS011;69599;52.622;9.230;2024-03-02T11:45:48;7.70;;;4.68;;
80297;SDS011;69599;52.622;9.230;2024-03-02T11:48:15;8.23;;;4.13;;
80297;SDS011;69599;52.622;9.230;2024-03-02T11:50:42;8.50;;;4.25;;
80297;SDS011;69599;52.622;9.230;2024-03-02T11:53:14;9.48;;;4.50;;
80297;SDS011;69599;52.622;9.230;2024-03-02T11:55:40;8.45;;;4.97;;
80297;SDS011;69599;52.622;9.230;2024-03-02T11:58:06;10.50;;;4.43;;
80297;SDS011;69599;52.622;9.230;2024-03-02T12:00:32;9.95;;;4.82;;
80297;SDS011;69599;52.622;9.230;2024-03-02T12:05:30;9.75;;;4.13;;
80297;SDS011;69599;52.622;9.230;2024-03-02T12:07:57;6.95;;;3.75;;
80297;SDS011;69599;52.622;9.230;2024-03-02T12:10:23;9.13;;;3.92;;
80297;SDS011;69599;52.622;9.230;2024-03-02T12:12:54;6.85;;;4.05;;
80297;SDS011;69599;52.622;9.230;2024-03-02T12:15:27;7.65;;;4.78;;
80297;SDS011;69599;52.622;9.230;2024-03-02T12:17:56;8.23;;;4.30;;
80297;SDS011;69599;52.622;9.230;2024-03-02T12:20:24;7.20;;;4.00;;
80297;SDS011;69599;52.622;9.230;2024-03-02T12:22:51;8.63;;;3.67;;
80297;SDS011;69599;52.622;9.230;2024-03-02T12:25:20;8.23;;;4.18;;
80297;SDS011;69599;52.622;9.230;2024-03-02T12:27:46;6.20;;;3.83;;
80297;SDS011;69599;52.622;9.230;2024-03-02T12:30:13;8.15;;;3.30;;
80297;SDS011;69599;52.622;9.230;2024-03-02T12:32:39;5.63;;;3.45;;
80297;SDS011;69599;52.622;9.230;2024-03-02T12:35:05;6.60;;;3.40;;
80297;SDS011;69599;52.622;9.230;2024-03-02T12:37:31;6.22;;;3.55;;
80297;SDS011;69599;52.622;9.230;2024-03-02T12:39:58;5.63;;;3.40;;
80297;SDS011;69599;52.622;9.230;2024-03-02T12:42:23;7.18;;;3.38;;
80297;SDS011;69599;52.622;9.230;2024-03-02T12:44:51;5.30;;;3.22;;
80297;SDS011;69599;52.622;9.230;2024-03-02T12:47:19;3.97;;;2.90;;
80297;SDS011;69599;52.622;9.230;2024-03-02T12:49:45;5.85;;;2.72;;
80297;SDS011;69599;52.622;9.230;2024-03-02T12:52:14;5.43;;;3.33;;
80297;SDS011;69599;52.622;9.230;2024-03-02T12:54:39;6.65;;;2.83;;
80297;SDS011;69599;52.622;9.230;2024-03-02T12:57:05;5.68;;;3.25;;
80297;SDS011;69599;52.622;9.230;2024-03-02T12:59:33;5.00;;;3.00;;
80297;SDS011;69599;52.622;9.230;2024-03-02T13:01:59;5.80;;;3.30;;
80297;SDS011;69599;52.622;9.230;2024-03-02T13:04:26;4.80;;;2.92;;
80297;SDS011;69599;52.622;9.230;2024-03-02T13:06:53;6.47;;;2.97;;
80297;SDS011;69599;52.622;9.230;2024-03-02T13:09:21;3.65;;;2.78;;
80297;SDS011;69599;52.622;9.230;2024-03-02T13:11:46;5.07;;;2.80;;
80297;SDS011;69599;52.622;9.230;2024-03-02T13:14:12;4.10;;;2.70;;
80297;SDS011;69599;52.622;9.230;2024-03-02T13:16:41;4.07;;;2.83;;
80297;SDS011;69599;52.622;9.230;2024-03-02T13:19:07;5.65;;;2.85;;
80297;SDS011;69599;52.622;9.230;2024-03-02T13:21:33;4.05;;;2.53;;
80297;SDS011;69599;52.622;9.230;2024-03-02T13:23:59;3.85;;;2.42;;
80297;SDS011;69599;52.622;9.230;2024-03-02T13:26:25;5.30;;;2.83;;
80297;SDS011;69599;52.622;9.230;2024-03-02T13:28:51;3.20;;;1.95;;
80297;SDS011;69599;52.622;9.230;2024-03-02T13:31:16;4.40;;;2.90;;
80297;SDS011;69599;52.622;9.230;2024-03-02T13:33:41;5.15;;;2.75;;
80297;SDS011;69599;52.622;9.230;2024-03-02T13:36:07;5.70;;;2.90;;
80297;SDS011;69599;52.622;9.230;2024-03-02T13:38:33;4.25;;;2.30;;
80297;SDS011;69599;52.622;9.230;2024-03-02T13:40:58;4.22;;;2.40;;
80297;SDS011;69599;52.622;9.230;2024-03-02T13:43:25;5.38;;;3.05;;
80297;SDS011;69599;52.622;9.230;2024-03-02T13:45:51;4.95;;;2.60;;
80297;SDS011;69599;52.622;9.230;2024-03-02T13:48:18;6.97;;;2.78;;
80297;SDS011;69599;52.622;9.230;2024-03-02T13:50:44;5.88;;;3.13;;
80297;SDS011;69599;52.622;9.230;2024-03-02T13:53:10;6.05;;;3.10;;
80297;SDS011;69599;52.622;9.230;2024-03-02T13:55:36;7.60;;;3.28;;
80297;SDS011;69599;52.622;9.230;2024-03-02T13:58:02;4.93;;;3.15;;
80297;SDS011;69599;52.622;9.230;2024-03-02T14:00:29;5.00;;;3.45;;
80297;SDS011;69599;52.622;9.230;2024-03-02T14:02:55;7.45;;;3.20;;
80297;SDS011;69599;52.622;9.230;2024-03-02T14:05:20;7.72;;;3.70;;
80297;SDS011;69599;52.622;9.230;2024-03-02T14:07:46;5.45;;;3.17;;
80297;SDS011;69599;52.622;9.230;2024-03-02T14:10:11;4.05;;;2.53;;
80297;SDS011;69599;52.622;9.230;2024-03-02T14:12:37;5.90;;;3.33;;
80297;SDS011;69599;52.622;9.230;2024-03-02T14:15:03;9.30;;;3.30;;
80297;SDS011;69599;52.622;9.230;2024-03-02T14:17:28;5.82;;;3.33;;
80297;SDS011;69599;52.622;9.230;2024-03-02T14:19:56;6.68;;;3.67;;
80297;SDS011;69599;52.622;9.230;2024-03-02T14:22:23;5.45;;;2.92;;
80297;SDS011;69599;52.622;9.230;2024-03-02T14:24:49;11.20;;;4.63;;
80297;SDS011;69599;52.622;9.230;2024-03-02T14:27:14;5.93;;;3.20;;
80297;SDS011;69599;52.622;9.230;2024-03-02T14:29:41;6.53;;;3.35;;
80297;SDS011;69599;52.622;9.230;2024-03-02T14:32:07;6.40;;;4.03;;
80297;SDS011;69599;52.622;9.230;2024-03-02T14:34:33;10.93;;;3.58;;
80297;SDS011;69599;52.622;9.230;2024-03-02T14:36:58;7.75;;;4.20;;
80297;SDS011;69599;52.622;9.230;2024-03-02T14:39:24;6.35;;;4.22;;
80297;SDS011;69599;52.622;9.230;2024-03-02T14:41:50;7.15;;;4.10;;
80297;SDS011;69599;52.622;9.230;2024-03-02T14:44:16;5.63;;;3.60;;
80297;SDS011;69599;52.622;9.230;2024-03-02T14:46:42;5.90;;;3.63;;